Winterville, Mississippi
Current Conditions -  °F | °C
As of 6:53 AM on Friday 19 Dec 2014 (Local Time) from KGLH Reporting Station
Few Clouds Few Clouds  
Wind Chill: 40°   Ceiling: Unl
Heat Index: 45°   Visibility: 9mi
Dew Point: 40°   Wind: 10mph
Humidity: 82%   Direction: 30°NNE
Pressure: 30.2"   Gusts: NA
Location:  33.5°N, 91.06°W
Report Text: KGLH 191253Z AUTO 03009KT 9SM FEW043 07/04 A3020 RMK AO2 SLP233 T00720044
Loading
Personal Weather Stations






























Interactive Weather Map New forecast layout! Learn more

10-Day Weather Forecast

Advertisements
Track Severe Weather on mobile